createdAt,value
2018-12-26T00:02:03.685Z,15.90
2018-12-26T00:04:53.248Z,16.47
2018-12-26T00:07:35.822Z,17.60
2018-12-26T00:13:33.443Z,17.97
2018-12-26T00:16:22.991Z,16.67
2018-12-26T00:19:04.883Z,17.83
2018-12-26T00:21:54.467Z,17.50
2018-12-26T00:24:38.063Z,17.85
2018-12-26T00:27:27.635Z,16.17
2018-12-26T00:30:10.189Z,18.90
2018-12-26T00:32:59.716Z,19.82
2018-12-26T00:35:41.814Z,20.30
2018-12-26T00:38:31.349Z,17.40
2018-12-26T00:41:13.953Z,19.45
2018-12-26T00:44:03.548Z,18.30
2018-12-26T00:46:45.912Z,16.97
2018-12-26T00:49:35.637Z,17.57
2018-12-26T00:52:17.743Z,17.10
2018-12-26T00:55:26.298Z,18.10
2018-12-26T00:58:08.133Z,16.93
2018-12-26T01:03:58.725Z,18.40
2018-12-26T01:06:40.888Z,18.97
2018-12-26T01:09:30.498Z,18.60
2018-12-26T01:12:12.223Z,18.40
2018-12-26T01:15:01.815Z,17.20
2018-12-26T01:17:51.754Z,17.63
2018-12-26T01:20:41.318Z,16.90
2018-12-26T01:23:23.776Z,16.53
2018-12-26T01:26:19.128Z,15.97
2018-12-26T01:28:58.850Z,15.43
2018-12-26T01:31:48.400Z,16.27
2018-12-26T01:34:30.734Z,15.50
2018-12-26T01:37:20.432Z,16.80
2018-12-26T01:40:03.173Z,14.13
2018-12-26T01:42:52.706Z,15.80
2018-12-26T01:45:42.244Z,13.73
2018-12-26T01:48:31.926Z,13.57
2018-12-26T01:54:11.511Z,16.70
2018-12-26T01:57:01.067Z,17.00
2018-12-26T01:59:43.890Z,14.53
2018-12-26T02:02:33.487Z,13.43
2018-12-26T02:05:15.715Z,16.60
2018-12-26T02:08:24.437Z,16.33
2018-12-26T02:11:06.885Z,15.38
2018-12-26T02:13:56.507Z,14.78
2018-12-26T02:16:38.472Z,14.35
2018-12-26T02:19:20.845Z,14.80
2018-12-26T02:22:10.554Z,14.43
2018-12-26T02:24:53.204Z,14.93
2018-12-26T02:28:01.748Z,16.65
2018-12-26T02:30:52.372Z,15.14
2018-12-26T02:33:42.009Z,13.57
2018-12-26T02:36:24.069Z,15.50
2018-12-26T02:39:13.630Z,14.60
2018-12-26T02:42:03.181Z,13.95
2018-12-26T02:44:52.877Z,12.88
2018-12-26T02:47:34.887Z,14.25
2018-12-26T02:50:24.417Z,15.53
2018-12-26T02:53:14.049Z,13.27
2018-12-26T02:55:56.415Z,15.40
2018-12-26T02:58:45.972Z,13.22
2018-12-26T03:01:28.266Z,14.23
2018-12-26T03:04:17.866Z,13.97
2018-12-26T03:07:00.353Z,14.40
2018-12-26T03:12:46.018Z,15.23
2018-12-26T03:15:35.734Z,13.95
2018-12-26T03:18:18.115Z,13.10
2018-12-26T03:21:07.716Z,14.35
2018-12-26T03:23:50.646Z,14.58
2018-12-26T03:26:40.221Z,17.73
2018-12-26T03:29:22.185Z,16.40
2018-12-26T03:32:11.761Z,14.90
2018-12-26T03:34:53.798Z,13.22
2018-12-26T03:37:43.426Z,14.57
2018-12-26T03:40:26.353Z,13.22
2018-12-26T03:46:24.657Z,12.93
2018-12-26T03:49:33.204Z,12.47
2018-12-26T03:52:16.284Z,12.33
2018-12-26T03:55:24.863Z,11.53
2018-12-26T03:58:07.322Z,12.30
2018-12-26T04:04:04.877Z,10.47
2018-12-26T04:10:01.144Z,11.47
2018-12-26T04:12:50.922Z,12.53
2018-12-26T04:15:51.432Z,11.83
2018-12-26T04:18:33.762Z,13.30
2018-12-26T04:21:23.482Z,11.30
2018-12-26T04:24:06.218Z,11.63
2018-12-26T04:26:55.761Z,10.75
2018-12-26T04:29:45.294Z,12.00
2018-12-26T04:32:28.029Z,12.50
2018-12-26T04:35:17.550Z,10.20
2018-12-26T04:37:59.893Z,10.37
2018-12-26T04:40:49.430Z,10.82
2018-12-26T04:43:31.671Z,12.07
2018-12-26T04:49:29.395Z,10.33
2018-12-26T04:52:19.089Z,8.03
2018-12-26T04:55:01.596Z,9.30
2018-12-26T04:57:51.140Z,8.73
2018-12-26T05:00:33.165Z,8.50
2018-12-26T05:03:22.738Z,8.20
2018-12-26T05:06:05.120Z,7.40
2018-12-26T05:08:55.439Z,8.70
2018-12-26T05:11:37.498Z,8.30
2018-12-26T05:14:27.170Z,9.03
2018-12-26T05:17:09.396Z,7.00
2018-12-26T05:19:51.697Z,8.00
2018-12-26T05:22:41.350Z,7.13
2018-12-26T05:25:23.432Z,7.07
2018-12-26T05:28:13.060Z,7.95
2018-12-26T05:30:55.338Z,8.38
2018-12-26T05:33:44.890Z,8.53
2018-12-26T05:36:27.703Z,7.30
2018-12-26T05:39:36.520Z,6.43
2018-12-26T05:42:19.022Z,5.70
2018-12-26T05:45:08.554Z,7.00
2018-12-26T05:47:50.291Z,5.45
2018-12-26T05:53:47.576Z,5.80
2018-12-26T05:59:49.080Z,5.47
2018-12-26T06:02:38.663Z,5.67
2018-12-26T06:05:20.635Z,5.97
2018-12-26T06:08:11.357Z,6.37
2018-12-26T06:11:00.899Z,6.47
2018-12-26T06:13:50.443Z,7.50
2018-12-26T06:16:39.992Z,6.57
2018-12-26T06:19:21.965Z,5.43
2018-12-26T06:22:11.481Z,6.83
2018-12-26T06:24:54.444Z,6.70
2018-12-26T06:27:51.446Z,6.20
2018-12-26T06:30:28.175Z,5.85
2018-12-26T06:33:17.704Z,5.33
2018-12-26T06:36:00.302Z,6.10
2018-12-26T06:38:49.864Z,5.53
2018-12-26T06:41:31.792Z,5.83
2018-12-26T06:44:21.467Z,4.60
2018-12-26T06:47:04.186Z,5.90
2018-12-26T06:52:59.770Z,6.70
2018-12-26T06:58:57.555Z,7.08
2018-12-26T07:01:47.228Z,5.58
2018-12-26T07:04:29.337Z,6.72
2018-12-26T07:07:18.924Z,6.00
2018-12-26T07:10:02.134Z,7.62
2018-12-26T07:12:44.201Z,7.13
2018-12-26T07:18:39.650Z,7.37
2018-12-26T07:21:29.197Z,7.80
2018-12-26T07:24:18.755Z,7.57
2018-12-26T07:27:01.278Z,8.40
2018-12-26T07:29:50.906Z,10.13
2018-12-26T07:32:32.721Z,9.37
2018-12-26T07:35:22.290Z,8.27
2018-12-26T07:38:11.856Z,8.43
2018-12-26T07:41:01.427Z,8.60
2018-12-26T07:43:50.964Z,7.87
2018-12-26T07:46:33.595Z,7.43
2018-12-26T07:49:23.228Z,7.90
2018-12-26T07:52:04.976Z,8.93
2018-12-26T07:54:54.529Z,10.58
2018-12-26T07:57:36.455Z,9.37
2018-12-26T08:00:25.981Z,11.30
2018-12-26T08:03:08.674Z,9.40
2018-12-26T08:05:58.210Z,9.90
2018-12-26T08:08:42.484Z,10.17
2018-12-26T08:14:33.325Z,11.00
2018-12-26T08:17:16.016Z,10.80
2018-12-26T08:19:57.996Z,10.23
2018-12-26T08:22:47.535Z,10.50
2018-12-26T08:25:29.403Z,9.60
2018-12-26T08:28:26.451Z,10.80
2018-12-26T08:31:02.613Z,12.28
2018-12-26T08:33:52.147Z,10.77
2018-12-26T08:36:34.621Z,9.40
2018-12-26T08:39:43.063Z,7.90
2018-12-26T08:42:25.221Z,8.18
2018-12-26T08:45:33.692Z,9.03
2018-12-26T08:48:16.347Z,8.60
2018-12-26T08:51:24.938Z,8.10
2018-12-26T08:54:07.569Z,7.78
2018-12-26T08:56:58.091Z,7.50
2018-12-26T08:59:40.840Z,7.10
2018-12-26T09:02:30.450Z,7.83
2018-12-26T09:05:12.381Z,5.77
2018-12-26T09:08:01.962Z,5.33
2018-12-26T09:10:44.081Z,5.37
2018-12-26T09:13:33.699Z,5.60
2018-12-26T09:16:15.932Z,4.50
2018-12-26T09:18:58.521Z,4.43
2018-12-26T09:21:48.258Z,6.08
2018-12-26T09:24:30.683Z,5.65
2018-12-26T09:27:20.262Z,4.47
2018-12-26T09:30:10.827Z,4.87
2018-12-26T09:32:52.932Z,4.43
2018-12-26T09:35:42.460Z,4.47
2018-12-26T09:38:24.548Z,4.80
2018-12-26T09:41:14.075Z,5.15
2018-12-26T09:43:55.842Z,5.93
2018-12-26T09:46:45.396Z,5.20
2018-12-26T09:49:27.287Z,4.80
2018-12-26T09:52:16.927Z,5.37
2018-12-26T09:54:59.133Z,6.90
2018-12-26T09:57:48.726Z,5.62
2018-12-26T10:00:38.304Z,6.10
2018-12-26T10:03:27.829Z,4.80
2018-12-26T10:06:10.290Z,5.60
2018-12-26T10:09:18.988Z,5.67
2018-12-26T10:12:08.524Z,5.45
2018-12-26T10:14:51.235Z,5.40
2018-12-26T10:20:56.718Z,6.47
2018-12-26T10:23:46.265Z,5.40
2018-12-26T10:26:35.858Z,5.30
2018-12-26T10:29:17.947Z,5.97
2018-12-26T10:35:16.043Z,6.28
2018-12-26T10:38:05.664Z,6.87
2018-12-26T10:40:48.138Z,5.72
2018-12-26T10:43:38.351Z,5.58
2018-12-26T10:46:20.391Z,6.73
2018-12-26T10:49:10.053Z,6.33
2018-12-26T10:52:00.439Z,6.45
2018-12-26T10:54:42.631Z,6.40
2018-12-26T10:57:32.342Z,5.20
2018-12-26T11:00:15.190Z,5.67
2018-12-26T11:03:04.831Z,4.70
2018-12-26T11:05:47.270Z,4.87
2018-12-26T11:08:36.861Z,4.80
2018-12-26T11:11:19.294Z,4.80
2018-12-26T11:14:08.819Z,4.70
2018-12-26T11:16:59.247Z,4.70
2018-12-26T11:19:41.837Z,5.90
2018-12-26T11:22:31.379Z,5.40
2018-12-26T11:25:13.948Z,5.70
2018-12-26T11:28:03.465Z,5.60
2018-12-26T11:30:46.157Z,5.47
2018-12-26T11:33:35.682Z,6.70
2018-12-26T11:39:25.906Z,9.37
2018-12-26T11:42:08.102Z,9.75
2018-12-26T11:44:57.730Z,10.20
2018-12-26T11:47:40.017Z,9.73
2018-12-26T11:50:29.541Z,10.60
2018-12-26T11:53:12.420Z,11.28
2018-12-26T11:59:08.017Z,10.60
2018-12-26T12:01:57.646Z,9.73
2018-12-26T12:07:55.207Z,10.10
2018-12-26T12:10:44.928Z,13.13
2018-12-26T12:13:27.434Z,11.67
2018-12-26T12:16:17.140Z,10.80
2018-12-26T12:18:59.166Z,9.77
2018-12-26T12:21:48.698Z,11.70
2018-12-26T12:24:30.768Z,12.87
2018-12-26T12:27:20.321Z,12.13
2018-12-26T12:30:03.058Z,10.20
2018-12-26T12:32:52.600Z,12.43
2018-12-26T12:35:34.703Z,11.93
2018-12-26T12:38:24.318Z,12.30
2018-12-26T12:41:06.584Z,9.58
2018-12-26T12:44:15.028Z,11.55
2018-12-26T12:46:57.261Z,9.67
2018-12-26T12:49:47.107Z,10.03
2018-12-26T12:52:29.329Z,11.03
2018-12-26T12:55:18.875Z,10.90
2018-12-26T12:58:00.933Z,11.77
2018-12-26T13:00:50.510Z,12.07
2018-12-26T13:03:32.707Z,12.30
2018-12-26T13:06:22.358Z,15.17
2018-12-26T13:09:06.514Z,12.67
2018-12-26T13:11:56.131Z,14.80
2018-12-26T13:14:38.779Z,12.73
2018-12-26T13:17:28.425Z,12.63
2018-12-26T13:20:10.434Z,13.37
2018-12-26T13:23:00.086Z,12.57
2018-12-26T13:25:44.457Z,11.80
2018-12-26T13:28:34.026Z,12.73
2018-12-26T13:31:23.711Z,11.03
2018-12-26T13:34:05.830Z,11.28
2018-12-26T13:36:55.398Z,12.57
2018-12-26T13:39:37.300Z,12.60
2018-12-26T13:42:26.845Z,13.60
2018-12-26T13:45:16.381Z,11.08
2018-12-26T13:47:58.224Z,12.20
2018-12-26T13:50:47.758Z,12.30
2018-12-26T13:53:30.478Z,14.07
2018-12-26T13:56:38.921Z,11.60
2018-12-26T13:59:21.046Z,12.17
2018-12-26T14:02:10.628Z,11.73
2018-12-26T14:05:00.270Z,12.47
2018-12-26T14:07:42.791Z,12.50
2018-12-26T14:10:33.907Z,12.80
2018-12-26T14:13:15.971Z,12.40
2018-12-26T14:16:24.568Z,12.13
2018-12-26T14:19:07.120Z,12.00
2018-12-26T14:21:56.795Z,12.33
2018-12-26T14:24:38.926Z,12.25
2018-12-26T14:27:29.539Z,12.53
2018-12-26T14:30:12.192Z,10.67
2018-12-26T14:33:01.786Z,11.87
2018-12-26T14:36:10.443Z,13.38
2018-12-26T14:38:52.275Z,11.77
2018-12-26T14:41:41.963Z,12.60
2018-12-26T14:44:24.305Z,12.53
2018-12-26T14:47:13.954Z,12.03
2018-12-26T14:49:57.125Z,11.63
2018-12-26T14:52:46.780Z,13.35
2018-12-26T14:55:28.646Z,11.70
2018-12-26T14:58:18.184Z,13.60
2018-12-26T15:00:59.950Z,12.20
2018-12-26T15:03:49.571Z,12.17
2018-12-26T15:06:32.177Z,12.63
2018-12-26T15:09:21.834Z,14.40
2018-12-26T15:12:04.101Z,12.98
2018-12-26T15:14:53.645Z,13.95
2018-12-26T15:17:35.570Z,13.93
2018-12-26T15:20:25.089Z,14.57
2018-12-26T15:23:07.534Z,12.58
2018-12-26T15:25:57.130Z,12.43
2018-12-26T15:28:39.926Z,13.80
2018-12-26T15:31:29.492Z,15.10
2018-12-26T15:34:11.295Z,13.60
2018-12-26T15:37:19.817Z,14.67
2018-12-26T15:40:02.231Z,13.97
2018-12-26T15:42:51.791Z,14.30
2018-12-26T15:45:33.855Z,13.77
2018-12-26T15:48:23.790Z,14.67
2018-12-26T15:51:05.940Z,12.20
2018-12-26T15:54:14.468Z,13.97
2018-12-26T15:56:57.252Z,14.00
2018-12-26T15:59:46.805Z,14.23
2018-12-26T16:02:28.846Z,14.87
2018-12-26T16:05:18.461Z,15.00
2018-12-26T16:08:01.169Z,14.37
2018-12-26T16:13:57.316Z,15.50
2018-12-26T16:16:46.857Z,17.15
2018-12-26T16:19:29.255Z,13.97
2018-12-26T16:22:18.912Z,14.37
2018-12-26T16:25:01.116Z,15.40
2018-12-26T16:27:51.195Z,17.40
2018-12-26T16:30:33.168Z,14.50
2018-12-26T16:33:22.730Z,16.85
2018-12-26T16:36:05.083Z,16.90
2018-12-26T16:38:54.613Z,13.83
2018-12-26T16:41:36.552Z,15.37
2018-12-26T16:44:26.223Z,16.77
2018-12-26T16:47:08.259Z,16.90
2018-12-26T16:49:57.925Z,18.97
2018-12-26T16:52:39.774Z,16.30
2018-12-26T16:55:29.492Z,13.40
2018-12-26T16:58:11.925Z,15.00
2018-12-26T17:01:01.606Z,16.63
2018-12-26T17:03:44.332Z,17.90
2018-12-26T17:09:40.827Z,16.37
2018-12-26T17:15:31.021Z,22.87
2018-12-26T17:18:12.885Z,22.43
2018-12-26T17:21:02.460Z,18.27
2018-12-26T17:23:44.733Z,15.03
2018-12-26T17:26:34.274Z,17.70
2018-12-26T17:29:16.296Z,19.07
2018-12-26T17:35:12.000Z,16.35
2018-12-26T17:38:01.556Z,13.70
2018-12-26T17:40:51.232Z,18.07
2018-12-26T17:43:33.495Z,16.40
2018-12-26T17:46:23.046Z,16.47
2018-12-26T17:52:21.311Z,15.97
2018-12-26T17:55:49.013Z,14.97
2018-12-26T17:58:32.237Z,16.10
2018-12-26T18:01:59.971Z,16.17
2018-12-26T18:04:42.529Z,17.47
2018-12-26T18:07:32.257Z,17.17
2018-12-26T18:10:14.861Z,17.50
2018-12-26T18:16:12.013Z,18.30
2018-12-26T18:18:54.068Z,17.93
2018-12-26T18:21:54.706Z,16.73
2018-12-26T18:27:44.927Z,21.45
2018-12-26T18:30:27.751Z,20.93
2018-12-26T18:33:17.369Z,19.57
2018-12-26T18:35:59.720Z,17.87
2018-12-26T18:38:49.284Z,17.03
2018-12-26T18:41:57.854Z,17.20
2018-12-26T18:44:40.288Z,20.17
2018-12-26T18:47:29.947Z,16.43
2018-12-26T18:50:12.304Z,18.05
2018-12-26T18:53:01.878Z,20.00
2018-12-26T18:56:10.427Z,20.70
2018-12-26T18:58:52.290Z,23.17
2018-12-26T19:02:00.778Z,21.05
2018-12-26T19:04:43.492Z,21.43
2018-12-26T19:07:33.052Z,22.00
2018-12-26T19:10:14.893Z,27.77
2018-12-26T19:16:11.892Z,18.47
2018-12-26T19:18:54.059Z,22.87
2018-12-26T19:21:43.628Z,23.77
2018-12-26T19:24:25.925Z,23.77
2018-12-26T19:27:15.595Z,19.97
2018-12-26T19:29:59.447Z,26.57
2018-12-26T19:35:50.079Z,23.20
2018-12-26T19:38:31.827Z,21.07
2018-12-26T19:41:21.440Z,23.53
2018-12-26T19:44:11.066Z,20.07
2018-12-26T19:46:54.501Z,23.73
2018-12-26T19:52:38.792Z,23.10
2018-12-26T19:55:28.399Z,24.63
2018-12-26T19:58:17.935Z,18.73
2018-12-26T20:01:07.734Z,19.77
2018-12-26T20:03:49.563Z,21.87
2018-12-26T20:06:39.073Z,23.20
2018-12-26T20:09:20.798Z,23.95
2018-12-26T20:12:04.846Z,23.70
2018-12-26T20:18:10.026Z,23.15
2018-12-26T20:20:59.680Z,21.17
2018-12-26T20:23:49.274Z,18.83
2018-12-26T20:26:39.152Z,24.77
2018-12-26T20:29:28.713Z,28.07
2018-12-26T20:32:37.258Z,24.37
2018-12-26T20:35:19.873Z,23.87
2018-12-26T20:38:28.339Z,22.57
2018-12-26T20:41:10.361Z,23.40
2018-12-26T20:43:59.902Z,23.37
2018-12-26T20:49:50.814Z,22.62
2018-12-26T20:52:33.564Z,23.53
2018-12-26T20:55:23.146Z,21.52
2018-12-26T20:58:12.684Z,23.23
2018-12-26T21:04:03.132Z,23.47
2018-12-26T21:06:52.737Z,21.57
2018-12-26T21:09:42.295Z,20.27
2018-12-26T21:12:24.371Z,19.47
2018-12-26T21:15:14.073Z,21.70
2018-12-26T21:17:57.786Z,20.17
2018-12-26T21:20:49.473Z,24.90
2018-12-26T21:23:32.336Z,19.70
2018-12-26T21:26:21.902Z,21.77
2018-12-26T21:29:04.462Z,21.13
2018-12-26T21:31:54.028Z,19.13
2018-12-26T21:34:36.585Z,22.33
2018-12-26T21:37:26.203Z,19.63
2018-12-26T21:40:09.287Z,20.45
2018-12-26T21:42:58.932Z,21.40
2018-12-26T21:45:41.242Z,18.50
2018-12-26T21:48:30.776Z,23.27
2018-12-26T21:51:12.938Z,23.30
2018-12-26T21:54:02.474Z,21.60
2018-12-26T21:56:52.106Z,22.70
2018-12-26T21:59:41.902Z,23.23
2018-12-26T22:02:26.338Z,21.23
2018-12-26T22:05:08.291Z,21.40
2018-12-26T22:07:57.854Z,21.13
2018-12-26T22:10:47.398Z,19.03
2018-12-26T22:13:30.899Z,19.00
2018-12-26T22:16:20.529Z,19.60
2018-12-26T22:19:02.375Z,17.65
2018-12-26T22:21:51.923Z,17.27
2018-12-26T22:24:42.411Z,18.63
2018-12-26T22:27:25.863Z,19.87
2018-12-26T22:30:15.573Z,17.27
2018-12-26T22:32:58.274Z,19.87
2018-12-26T22:35:47.836Z,20.07
2018-12-26T22:38:30.279Z,19.80
2018-12-26T22:41:19.815Z,18.87
2018-12-26T22:44:02.181Z,19.52
2018-12-26T22:46:51.881Z,19.27
2018-12-26T22:49:34.315Z,19.93
2018-12-26T22:52:23.861Z,18.53
2018-12-26T22:55:32.344Z,21.20
2018-12-26T22:58:14.716Z,20.20
2018-12-26T23:01:15.441Z,20.53
2018-12-26T23:04:05.052Z,19.35
2018-12-26T23:06:54.596Z,18.07
2018-12-26T23:09:36.897Z,19.00
2018-12-26T23:15:35.524Z,17.87
2018-12-26T23:18:25.091Z,15.97
2018-12-26T23:21:14.641Z,18.17
2018-12-26T23:23:57.386Z,17.07
2018-12-26T23:26:47.867Z,19.97
2018-12-26T23:32:34.332Z,18.17
2018-12-26T23:35:16.947Z,17.57
2018-12-26T23:38:06.486Z,16.93
2018-12-26T23:41:15.051Z,16.20
2018-12-26T23:43:57.306Z,13.40
2018-12-26T23:46:46.984Z,17.47
2018-12-26T23:49:36.535Z,18.90
2018-12-26T23:52:26.079Z,19.90
2018-12-26T23:55:08.738Z,20.80
2018-12-26T23:57:58.295Z,17.73
